Naikai2 — JD2433 — position and weather

sailwx.info

Track history (hours):
 
Tides and Currents Weather Stations Pressure Air Temp Water Temp Dewpoint Dewpoint Depression Visibility Wind Speed Wind Dir Waves Ship Positions

Naikai2

Last reported at 2015-Mar-29 01:26 UTC. Time now 2015-Mar-29 07:25 UTC.
Position N 34°36' E 134°54'.

Length 28 m; draft 2.2 m.

Type: Other ship. MMSI: 431000283.

Date/timePositionNaut miles runAvg speedWind from/ knotsBaromVisibWave heightAir tempDewpointWater temp
2015-Mar-29 01:26N 34°36' E 134°54'910.4
2015-Mar-29 00:33N 34°35' E 135°05'5 5.4
2015-Mar-28 23:33N 34°30' E 135°07'1612.0
2015-Mar-28 22:14N 34°16' E 134°59'2 3.3
2015-Mar-28 21:33N 34°13' E 135°00'9 8.2
2015-Mar-28 20:28N 34°21' E 134°54'5 0.4
2015-Mar-28 07:30N 34°17' E 134°59'1010.2
2015-Mar-28 06:33N 34°26' E 135°03'9 9.0
2015-Mar-28 05:33N 34°35' E 135°04'7 0.2
2015-Mar-26 17:08N 34°36' E 134°55'711.9
2015-Mar-26 16:33N 34°36' E 135°04'8 7.4
2015-Mar-26 15:32N 34°29' E 135°06'1413.6
2015-Mar-26 14:31N 34°16' E 134°59'5 4.9
2015-Mar-26 13:32N 34°11' E 134°60'1111.3
2015-Mar-26 12:33N 34°23' E 134°60'1514.7
2015-Mar-26 11:33N 34°35' E 135°08'4 4.0
2015-Mar-26 10:33N 34°39' E 135°10'0 0.0
2015-Mar-25 23:34N 34°39' E 135°10'1 1.2
2015-Mar-25 22:33N 34°40' E 135°11'0 0.0
2015-Mar-25 21:33N 34°40' E 135°11'5 5.0
2015-Mar-25 20:32N 34°37' E 135°06'2 2.4
2015-Mar-25 19:33N 34°36' E 135°03'6 6.2
2015-Mar-25 18:33N 34°39' E 135°10'0 0.0
2015-Mar-24 07:33N 34°39' E 135°10'1413.9
2015-Mar-24 06:32N 34°26' E 135°03'8 6.4
2015-Mar-24 05:20N 34°19' E 134°59'1113.6
2015-Mar-24 04:32N 34°29' E 135°04'8 8.3
2015-Mar-24 03:33N 34°37' E 135°01'1 0.0
2015-Mar-22 00:33N 34°37' E 135°02'6 5.9
2015-Mar-21 23:33N 34°33' E 135°08'1010.3
2015-Mar-21 22:33N 34°25' E 135°02'1212.3
2015-Mar-21 21:33N 34°12' E 134°59'7 6.6
2015-Mar-21 20:33N 34°13' E 135°07'1 0.1
2015-Mar-21 08:21N 34°13' E 135°09'810.6
2015-Mar-21 07:33N 34°15' E 134°59'1413.6
2015-Mar-21 06:33N 34°28' E 135°04'9 8.7
2015-Mar-21 05:30N 34°37' E 135°01'2 0.1
2015-Mar-20 04:32N 34°38' E 134°60'8 8.1
2015-Mar-20 03:33N 34°33' E 135°08'8 7.5
2015-Mar-20 02:33N 34°26' E 135°05'1210.5
2015-Mar-20 01:24N 34°15' E 134°59'8 8.2
2015-Mar-20 00:25N 34°24' E 135°01'1213.8
2015-Mar-19 23:33N 34°35' E 135°05'  
Track history (hours):
 
Tides and Currents Weather Stations Pressure Air Temp Water Temp Dewpoint Dewpoint Depression Visibility Wind Speed Wind Dir Waves Ship Positions

Naikai2

Last reported at 2015-Mar-29 01:26 UTC. Time now 2015-Mar-29 07:25 UTC.
Position N 34°36' E 134°54'.

Length 28 m; draft 2.2 m.

Type: Other ship. MMSI: 431000283.

Date/timePositionNaut miles runAvg speedWind from/ knotsBaromVisibWave heightAir tempDewpointWater temp
2015-Mar-29 01:26N 34°36' E 134°54'910.4
2015-Mar-29 00:33N 34°35' E 135°05'5 5.4
2015-Mar-28 23:33N 34°30' E 135°07'1612.0
2015-Mar-28 22:14N 34°16' E 134°59'2 3.3
2015-Mar-28 21:33N 34°13' E 135°00'9 8.2
2015-Mar-28 20:28N 34°21' E 134°54'5 0.4
2015-Mar-28 07:30N 34°17' E 134°59'1010.2
2015-Mar-28 06:33N 34°26' E 135°03'9 9.0
2015-Mar-28 05:33N 34°35' E 135°04'7 0.2
2015-Mar-26 17:08N 34°36' E 134°55'711.9
2015-Mar-26 16:33N 34°36' E 135°04'8 7.4
2015-Mar-26 15:32N 34°29' E 135°06'1413.6
2015-Mar-26 14:31N 34°16' E 134°59'5 4.9
2015-Mar-26 13:32N 34°11' E 134°60'1111.3
2015-Mar-26 12:33N 34°23' E 134°60'1514.7
2015-Mar-26 11:33N 34°35' E 135°08'4 4.0
2015-Mar-26 10:33N 34°39' E 135°10'0 0.0
2015-Mar-25 23:34N 34°39' E 135°10'1 1.2
2015-Mar-25 22:33N 34°40' E 135°11'0 0.0
2015-Mar-25 21:33N 34°40' E 135°11'5 5.0
2015-Mar-25 20:32N 34°37' E 135°06'2 2.4
2015-Mar-25 19:33N 34°36' E 135°03'6 6.2
2015-Mar-25 18:33N 34°39' E 135°10'0 0.0
2015-Mar-24 07:33N 34°39' E 135°10'1413.9
2015-Mar-24 06:32N 34°26' E 135°03'8 6.4
2015-Mar-24 05:20N 34°19' E 134°59'1113.6
2015-Mar-24 04:32N 34°29' E 135°04'8 8.3
2015-Mar-24 03:33N 34°37' E 135°01'1 0.0
2015-Mar-22 00:33N 34°37' E 135°02'6 5.9
2015-Mar-21 23:33N 34°33' E 135°08'1010.3
2015-Mar-21 22:33N 34°25' E 135°02'1212.3
2015-Mar-21 21:33N 34°12' E 134°59'7 6.6
2015-Mar-21 20:33N 34°13' E 135°07'1 0.1
2015-Mar-21 08:21N 34°13' E 135°09'810.6
2015-Mar-21 07:33N 34°15' E 134°59'1413.6
2015-Mar-21 06:33N 34°28' E 135°04'9 8.7
2015-Mar-21 05:30N 34°37' E 135°01'2 0.1
2015-Mar-20 04:32N 34°38' E 134°60'8 8.1
2015-Mar-20 03:33N 34°33' E 135°08'8 7.5
2015-Mar-20 02:33N 34°26' E 135°05'1210.5
2015-Mar-20 01:24N 34°15' E 134°59'8 8.2
2015-Mar-20 00:25N 34°24' E 135°01'1213.8
2015-Mar-19 23:33N 34°35' E 135°05'  

Dump ship's entire track history